Terminal Aerodrome Forecast
Issued by NWS

Home | Current Version | Previous Version | Text Only | Print | Product List | Glossary On
Versions: 1 2 3 4 5 6 7 8 9 10 11 12 13 14 15 16 17 18 19
000
FTUS42 KTAE 190538
TAFDHN
TAF
KDHN 190538Z 1906/2006 18005KT 3SM -RA BR SCT007 BKN120
     FM190900 21013G20KT 3SM TSRA SCT003 BKN020CB
     FM191900 22010G15KT P6SM BKN050
     FM200000 21011KT P6SM BKN250=

USA.gov is the U.S. government's official web portal to all federal, state and local government web resources and services.